首页
METAR-TAF:

METAR-TAF

机场 :

布拉格瓦茨拉夫·哈維爾國際機場

布拉格, 捷克共和国

纬度: 50-06N, 经度: 014-15E, 海拔: 365米

当前天气观测

该预报发布于11分钟前的04:30 UTC
风速16节,风向西
温度 4°C
湿度 81%
气压 1015 hPa
能见度10公里或以上
少量云层高于3500英尺
小雨

METAR: LKPR 210430Z 28016KT 9999 -RA FEW035 04/01 Q1015 NOSIG

时间: 05:41 (04:41 UTC)

预报

该预报发布于5小时和41分钟前的23:00 UTC
预报有效从21日的 00点(UTC)到 22日的 06点(UTC)
风速12节,风向
能见度10公里或以上
多云层高于3500英尺
成为
从 21日的 00点(UTC)到 21日的 02点(UTC)
风速14节,风向西转西南,有时为26节阵风
短暂存在
从 21日的 03点(UTC)到 21日的 13点(UTC)
风速16节,风向西转西北,有时为34节阵风
能見度: 9000
多云层高于2300英尺
小阵雨
几率 40% :
短暂存在
从 21日的 03点(UTC)到 21日的 06点(UTC)
风速20节,风向西转西北,有时为42节阵风
能見度: 3000
散云层高于1300英尺, 积雨云.
多云层高于1500英尺
阵雨

TAF: LKPR 202300Z 2100/2206 18012KT 9999 BKN035 BECMG 2100/2102 24014G26KT TEMPO 2103/2113 29016G34KT 9000 -SHRA BKN023 PROB40 TEMPO 2103/2106 30020G42KT 3000 SHRA SCT013CB BKN015

超过4000个机场的气象观测和天气预报(METAR&TAF报告)。

可查询的气象台以黄色和红色小点在地图上表示。

将鼠标移到小点上方,可查看气象台名称。

然后点击查看天气观测和预报。

如需切换地图:点击带黑十字的绿色按钮放大地图;点击带横线的绿色按钮缩小地图;或者点击绿色箭头查看邻近地区的地图。


METAR-TAF: